Time;durP1;ratioP1;P1;durP2;ratioP2;P2;SDS_P1;SDS_P2;PMS_P1;PMS_P2;Temp;Humidity;BMP_temperature;BMP_pressure;BME280_temperature;BME280_humidity;BME280_pressure;Samples;Min_cycle;Max_cycle;Signal;HPM_P1;HPM_P2
2022/12/21 00:00:44;;;;;;;;;;;;;;;;;;4998878;28;20004;-90
2022/12/21 00:03:10;;;;;;;;;;;;;;;;;;4998568;28;20269;-90
2022/12/21 00:05:35;;;;;;;;;;;;;;;;;;4998422;28;19925;-90
2022/12/21 00:08:01;;;;;;;;;;;;;;;;;;4998420;28;20292;-90
2022/12/21 00:10:27;;;;;;;;;;;;;;;;;;4998536;28;19921;-90
2022/12/21 00:12:54;;;;;;;;;;;;;;;;;;4998266;28;19921;-90
2022/12/21 00:15:21;;;;;;;;;;;;;;;;;;4998256;28;20004;-90
2022/12/21 00:17:46;;;;;;;;;;;;;;;;;;4998235;28;19925;-90
2022/12/21 00:20:12;;;;;;;;;;;;;;;;;;4998574;28;19975;-91
2022/12/21 00:22:38;;;;;;;;;;;;;;;;;;4997982;28;20340;-91
2022/12/21 00:25:04;;;;;;;;;;;;;;;;;;4998127;28;20496;-91
2022/12/21 00:27:30;;;;;;;;;;;;;;;;;;4998073;28;19968;-90
2022/12/21 00:29:56;;;;;;;;;;;;;;;;;;4998094;28;19948;-90
2022/12/21 00:32:22;;;;;;;;;;;;;;;;;;4997835;28;20427;-90
2022/12/21 00:34:48;;;;;;;;;;;;;;;;;;4998253;28;19937;-90
2022/12/21 00:37:14;;;;;;;;;;;;;;;;;;4998008;28;19954;-90
2022/12/21 00:39:40;;;;;;;;;;;;;;;;;;4997784;28;19925;-90
2022/12/21 00:42:06;;;;;;;;;;;;;;;;;;4997832;28;19921;-90
2022/12/21 00:44:32;;;;;;;;;;;;;;;;;;4997741;28;19932;-90
2022/12/21 00:46:57;;;;;;;;;;;;;;;;;;4997461;28;19929;-90
2022/12/21 00:49:23;;;;;;;;;;;;;;;;;;4997495;28;19932;-90
2022/12/21 00:51:49;;;;;;;;;;;;;;;;;;4997995;28;19921;-91
2022/12/21 00:54:15;;;;;;;;;;;;;;;;;;4997818;28;19925;-90
2022/12/21 00:56:41;;;;;;;;;;;;;;;;;;4997726;28;20361;-91
2022/12/21 00:59:08;;;;;;;;;;;;;;;;;;4997596;28;20408;-91
2022/12/21 01:01:34;;;;;;;;;;;;;;;;;;4997309;28;19960;-90
2022/12/21 01:04:00;;;;;;;;;;;;;;;;;;4997261;28;19922;-90
2022/12/21 01:06:26;;;;;;;;;;;;;;;;;;4997216;28;19933;-91
2022/12/21 01:08:52;;;;;;;;;;;;;;;;;;4997776;28;19921;-91
2022/12/21 01:11:18;;;;;;;;;;;;;;;;;;4997286;28;20012;-91
2022/12/21 01:13:44;;;;;;;;;;;;;;;;;;4997103;28;19921;-91
2022/12/21 01:16:10;;;;;;;;;;;;;;;;;;4997060;28;19922;-90
2022/12/21 01:18:36;;;;;;;;;;;;;;;;;;4997124;28;19921;-90
2022/12/21 01:21:02;;;;;;;;;;;;;;;;;;4996787;28;19992;-90
2022/12/21 01:23:28;;;;;;;;;;;;;;;;;;4997025;28;19925;-90
2022/12/21 01:25:55;;;;;;;;;;;;;;;;;;4997048;28;20332;-90
2022/12/21 01:28:21;;;;;;;;;;;;;;;;;;4996987;28;19922;-91
2022/12/21 01:30:47;;;;;;;;;;;;;;;;;;4996597;28;19932;-91
2022/12/21 01:33:13;;;;;;;;;;;;;;;;;;4996960;28;19928;-91
2022/12/21 01:35:39;;;;;;;;;;;;;;;;;;4996870;28;19921;-90
2022/12/21 01:38:05;;;;;;;;;;;;;;;;;;4996748;28;19971;-91
2022/12/21 01:40:31;;;;;;;;;;;;;;;;;;4996908;28;20331;-91
2022/12/21 01:42:58;;;;;;;;;;;;;;;;;;4997067;28;19921;-91
2022/12/21 01:45:24;;;;;;;;;;;;;;;;;;4996905;28;19932;-91
2022/12/21 01:47:50;;;;;;;;;;;;;;;;;;4996359;28;19922;-90
2022/12/21 01:50:16;;;;;;;;;;;;;;;;;;4996847;28;19928;-91
2022/12/21 01:52:42;;;;;;;;;;;;;;;;;;4996524;28;19925;-90
2022/12/21 01:55:07;;;;;;;;;;;;;;;;;;4996537;28;19921;-90
2022/12/21 01:57:33;;;;;;;;;;;;;;;;;;4996217;28;19972;-90
2022/12/21 01:59:59;;;;;;;;;;;;;;;;;;4996422;28;20372;-90
2022/12/21 02:02:25;;;;;;;;;;;;;;;;;;4996460;28;19943;-91
2022/12/21 02:04:51;;;;;;;;;;;;;;;;;;4996282;28;19925;-90
2022/12/21 02:07:17;;;;;;;;;;;;;;;;;;4996545;28;19922;-90
2022/12/21 02:09:43;;;;;;;;;;;;;;;;;;4996169;28;19922;-91
2022/12/21 02:12:09;;;;;;;;;;;;;;;;;;4996265;28;19926;-90
2022/12/21 02:14:35;;;;;;;;;;;;;;;;;;4996294;28;19945;-91
2022/12/21 02:17:01;;;;;;;;;;;;;;;;;;4995881;28;20130;-91
2022/12/21 02:19:27;;;;;;;;;;;;;;;;;;4996018;28;19922;-90
2022/12/21 02:21:52;;;;;;;;;;;;;;;;;;4992823;28;20009;-90
2022/12/21 02:24:18;;;;;;;;;;;;;;;;;;4976646;28;19922;-90
2022/12/21 02:26:47;;;;;;;;;;;;;;;;;;4976707;28;20298;-91
2022/12/21 02:29:13;;;;;;;;;;;;;;;;;;4976069;28;19949;-91
2022/12/21 02:31:39;;;;;;;;;;;;;;;;;;4976163;28;19968;-90
2022/12/21 02:34:05;;;;;;;;;;;;;;;;;;4976184;28;19926;-90
2022/12/21 02:36:31;;;;;;;;;;;;;;;;;;4976240;28;19933;-90
2022/12/21 02:38:57;;;;;;;;;;;;;;;;;;4992363;28;19929;-90
2022/12/21 02:41:23;;;;;;;;;;;;;;;;;;4976093;28;19997;-89
2022/12/21 02:46:33;;;;;;;;;;;;;;;;;;4992315;28;20120;-90
2022/12/21 02:48:59;;;;;;;;;;;;;;;;;;4992188;28;20017;-89
2022/12/21 02:51:25;;;;;;;;;;;;;;;;;;4976131;28;20000;-90
2022/12/21 02:53:51;;;;;;;;;;;;;;;;;;4992040;28;19933;-90
2022/12/21 02:56:17;;;;;;;;;;;;;;;;;;4992093;28;19926;-90
2022/12/21 02:58:43;;;;;;;;;;;;;;;;;;4992374;28;19944;-90
2022/12/21 03:01:09;;;;;;;;;;;;;;;;;;4976120;28;19932;-90
2022/12/21 03:03:50;;;;;;;;;;;;;;;;;;4975816;28;19922;-90
2022/12/21 03:06:16;;;;;;;;;;;;;;;;;;4975659;28;19926;-90
2022/12/21 03:08:42;;;;;;;;;;;;;;;;;;4976193;28;20405;-89
2022/12/21 03:11:08;;;;;;;;;;;;;;;;;;4992453;28;19922;-90
2022/12/21 03:13:33;;;;;;;;;;;;;;;;;;4992136;28;19922;-90
2022/12/21 03:15:59;;;;;;;;;;;;;;;;;;4992191;28;19922;-90
2022/12/21 03:18:25;;;;;;;;;;;;;;;;;;4976004;28;19951;-90
2022/12/21 03:20:51;;;;;;;;;;;;;;;;;;4975753;28;19926;-90
2022/12/21 03:23:17;;;;;;;;;;;;;;;;;;4994594;28;19977;-91
2022/12/21 03:25:43;;;;;;;;;;;;;;;;;;4978770;28;19926;-90
2022/12/21 03:28:09;;;;;;;;;;;;;;;;;;4982053;28;19921;-90
2022/12/21 03:30:35;;;;;;;;;;;;;;;;;;4982914;28;20043;-90
2022/12/21 03:33:01;;;;;;;;;;;;;;;;;;4983064;28;20016;-90
2022/12/21 03:35:27;;;;;;;;;;;;;;;;;;4983108;28;20279;-90
2022/12/21 03:37:53;;;;;;;;;;;;;;;;;;4982932;28;19925;-89
2022/12/21 03:40:19;;;;;;;;;;;;;;;;;;4983008;28;19921;-90
2022/12/21 03:42:44;;;;;;;;;;;;;;;;;;4982908;28;20296;-90
2022/12/21 03:45:10;;;;;;;;;;;;;;;;;;4982936;28;19948;-90
2022/12/21 03:47:36;;;;;;;;;;;;;;;;;;4982884;28;19960;-90
2022/12/21 03:50:02;;;;;;;;;;;;;;;;;;4983339;28;19928;-90
2022/12/21 03:52:28;;;;;;;;;;;;;;;;;;4998838;28;19992;-89
2022/12/21 03:54:54;;;;;;;;;;;;;;;;;;4998890;28;19928;-90
2022/12/21 03:57:20;;;;;;;;;;;;;;;;;;5002897;28;19937;-90
2022/12/21 03:59:46;;;;;;;;;;;;;;;;;;4990924;28;20379;-88
2022/12/21 04:02:12;;;;;;;;;;;;;;;;;;4987679;28;19921;-90
2022/12/21 04:04:38;;;;;;;;;;;;;;;;;;4990609;28;20434;-90
2022/12/21 04:07:04;;;;;;;;;;;;;;;;;;4988896;28;19925;-89
2022/12/21 04:09:30;;;;;;;;;;;;;;;;;;4988502;28;19945;-90
2022/12/21 04:14:40;;;;;;;;;;;;;;;;;;5004292;28;19926;-90
2022/12/21 04:17:06;;;;;;;;;;;;;;;;;;4989249;28;19921;-90
2022/12/21 04:28:29;;;;;;;;;;;;;;;;;;5003879;28;19921;-90
2022/12/21 04:30:36;;;;;;;;;;;;;;;;;;5001424;28;19928;-90
2022/12/21 04:33:02;;;;;;;;;;;;;;;;;;5010390;28;19921;-91
2022/12/21 04:35:28;;;;;;;;;;;;;;;;;;5014415;28;19921;-92
2022/12/21 04:37:54;;;;;;;;;;;;;;;;;;5013695;28;19988;-90
2022/12/21 04:40:20;;;;;;;;;;;;;;;;;;5009251;28;19929;-89
2022/12/21 04:42:46;;;;;;;;;;;;;;;;;;5007592;28;19929;-89
2022/12/21 04:45:12;;;;;;;;;;;;;;;;;;5004184;28;19930;-89
2022/12/21 04:47:37;;;;;;;;;;;;;;;;;;4998797;28;19922;-89
2022/12/21 04:50:03;;;;;;;;;;;;;;;;;;4998096;28;19921;-89
2022/12/21 04:52:29;;;;;;;;;;;;;;;;;;4998146;28;19956;-90
2022/12/21 04:54:56;;;;;;;;;;;;;;;;;;4998701;28;19921;-91
2022/12/21 04:57:22;;;;;;;;;;;;;;;;;;4999399;28;20311;-90
2022/12/21 04:59:48;;;;;;;;;;;;;;;;;;4998869;28;20056;-90
2022/12/21 05:02:14;;;;;;;;;;;;;;;;;;4998295;28;20015;-90
2022/12/21 05:04:40;;;;;;;;;;;;;;;;;;4998692;28;19975;-90
2022/12/21 05:07:07;;;;;;;;;;;;;;;;;;4998657;28;19925;-90
2022/12/21 05:09:33;;;;;;;;;;;;;;;;;;4998343;28;19921;-91
2022/12/21 05:11:59;;;;;;;;;;;;;;;;;;4997614;28;20333;-91
2022/12/21 05:14:25;;;;;;;;;;;;;;;;;;4997392;28;19967;-90
2022/12/21 05:16:51;;;;;;;;;;;;;;;;;;4997281;28;19933;-91
2022/12/21 05:19:18;;;;;;;;;;;;;;;;;;4997409;28;20321;-92
2022/12/21 05:21:43;;;;;;;;;;;;;;;;;;4997082;28;19933;-91
2022/12/21 05:24:09;;;;;;;;;;;;;;;;;;4996998;28;19922;-91
2022/12/21 05:26:35;;;;;;;;;;;;;;;;;;4997378;28;20303;-91
2022/12/21 05:29:01;;;;;;;;;;;;;;;;;;4997342;28;19979;-91
2022/12/21 05:31:27;;;;;;;;;;;;;;;;;;4996978;28;19969;-91
2022/12/21 05:33:53;;;;;;;;;;;;;;;;;;4996985;28;20008;-92
2022/12/21 05:36:19;;;;;;;;;;;;;;;;;;4997097;28;19936;-91
2022/12/21 05:38:45;;;;;;;;;;;;;;;;;;4997293;28;19921;-91
2022/12/21 05:41:11;;;;;;;;;;;;;;;;;;4997034;28;20335;-91
2022/12/21 05:43:37;;;;;;;;;;;;;;;;;;4996780;28;19922;-91
2022/12/21 05:46:03;;;;;;;;;;;;;;;;;;4996612;28;19925;-91
2022/12/21 05:48:28;;;;;;;;;;;;;;;;;;4996923;28;19975;-92
2022/12/21 05:50:54;;;;;;;;;;;;;;;;;;4996621;28;19922;-91
2022/12/21 05:53:20;;;;;;;;;;;;;;;;;;4996398;28;19948;-91
2022/12/21 05:55:46;;;;;;;;;;;;;;;;;;4996682;28;20433;-91
2022/12/21 05:58:12;;;;;;;;;;;;;;;;;;4996759;28;19921;-91
2022/12/21 06:00:38;;;;;;;;;;;;;;;;;;4996435;28;19922;-91
2022/12/21 06:03:04;;;;;;;;;;;;;;;;;;4996244;28;20012;-91
2022/12/21 06:05:30;;;;;;;;;;;;;;;;;;4996184;28;19926;-91
2022/12/21 06:07:56;;;;;;;;;;;;;;;;;;4996271;28;19928;-91
2022/12/21 06:10:22;;;;;;;;;;;;;;;;;;4996204;28;19975;-91
2022/12/21 06:12:48;;;;;;;;;;;;;;;;;;4996278;28;19928;-90
2022/12/21 06:15:14;;;;;;;;;;;;;;;;;;4996143;28;19929;-91
2022/12/21 06:17:40;;;;;;;;;;;;;;;;;;4996281;28;19922;-91
2022/12/21 06:20:06;;;;;;;;;;;;;;;;;;4996259;28;19975;-91
2022/12/21 06:22:32;;;;;;;;;;;;;;;;;;4992846;28;19930;-91
2022/12/21 06:24:58;;;;;;;;;;;;;;;;;;4976577;28;19923;-91
2022/12/21 06:27:23;;;;;;;;;;;;;;;;;;4976384;28;19964;-90
2022/12/21 06:29:49;;;;;;;;;;;;;;;;;;4992680;28;19929;-91
2022/12/21 06:32:15;;;;;;;;;;;;;;;;;;4976072;28;19972;-91
2022/12/21 06:34:41;;;;;;;;;;;;;;;;;;4976464;28;19948;-91
2022/12/21 06:37:09;;;;;;;;;;;;;;;;;;4976406;28;19949;-91
2022/12/21 06:39:35;;;;;;;;;;;;;;;;;;4976755;28;19922;-91
2022/12/21 06:42:01;;;;;;;;;;;;;;;;;;4976336;28;20068;-91
2022/12/21 06:44:27;;;;;;;;;;;;;;;;;;4976290;28;19996;-90
2022/12/21 06:46:53;;;;;;;;;;;;;;;;;;4976215;28;20319;-91
2022/12/21 06:49:19;;;;;;;;;;;;;;;;;;4976144;28;19922;-91
2022/12/21 06:51:45;;;;;;;;;;;;;;;;;;4975934;28;19921;-91
2022/12/21 06:54:10;;;;;;;;;;;;;;;;;;4976163;28;19922;-90
2022/12/21 06:56:36;;;;;;;;;;;;;;;;;;4975980;28;19922;-91
2022/12/21 06:59:02;;;;;;;;;;;;;;;;;;4992228;28;20376;-91
2022/12/21 07:01:28;;;;;;;;;;;;;;;;;;4975451;28;19969;-90
2022/12/21 07:03:54;;;;;;;;;;;;;;;;;;4975732;28;19976;-91
2022/12/21 07:06:20;;;;;;;;;;;;;;;;;;4975693;28;20333;-91
2022/12/21 07:08:47;;;;;;;;;;;;;;;;;;4975984;28;20333;-90
2022/12/21 07:11:13;;;;;;;;;;;;;;;;;;4991966;28;20261;-90
2022/12/21 07:13:39;;;;;;;;;;;;;;;;;;4975874;28;19922;-89
2022/12/21 07:16:05;;;;;;;;;;;;;;;;;;4991854;28;20341;-89
2022/12/21 07:18:31;;;;;;;;;;;;;;;;;;4975480;28;19951;-89
2022/12/21 07:20:57;;;;;;;;;;;;;;;;;;4975547;28;20031;-90
2022/12/21 07:23:23;;;;;;;;;;;;;;;;;;4995348;28;19922;-89
2022/12/21 07:25:49;;;;;;;;;;;;;;;;;;4995146;28;19926;-90
2022/12/21 07:28:15;;;;;;;;;;;;;;;;;;4995061;28;20376;-90
2022/12/21 07:30:41;;;;;;;;;;;;;;;;;;4995509;28;19925;-91
2022/12/21 07:33:07;;;;;;;;;;;;;;;;;;4995047;28;19929;-90
2022/12/21 07:35:33;;;;;;;;;;;;;;;;;;4995468;28;19992;-90
2022/12/21 07:37:59;;;;;;;;;;;;;;;;;;4994979;28;19928;-90
2022/12/21 07:40:25;;;;;;;;;;;;;;;;;;4995083;28;20045;-90
2022/12/21 07:42:51;;;;;;;;;;;;;;;;;;4994982;28;19945;-90
2022/12/21 07:45:17;;;;;;;;;;;;;;;;;;4994919;28;20004;-90
2022/12/21 07:47:47;;;;;;;;;;;;;;;;;;4995058;28;19971;-90
2022/12/21 07:50:13;;;;;;;;;;;;;;;;;;4995005;28;20403;-90
2022/12/21 07:52:39;;;;;;;;;;;;;;;;;;4994817;28;20008;-91
2022/12/21 07:55:05;;;;;;;;;;;;;;;;;;4995027;28;20007;-90
2022/12/21 07:57:31;;;;;;;;;;;;;;;;;;4994715;28;19921;-91
2022/12/21 07:59:57;;;;;;;;;;;;;;;;;;4995082;28;20257;-90
2022/12/21 08:02:23;;;;;;;;;;;;;;;;;;4994680;28;19921;-91
2022/12/21 08:04:49;;;;;;;;;;;;;;;;;;4995105;28;19925;-91
2022/12/21 08:07:14;;;;;;;;;;;;;;;;;;4994760;28;19996;-90
2022/12/21 08:09:40;;;;;;;;;;;;;;;;;;4994788;28;20392;-90
2022/12/21 08:12:06;;;;;;;;;;;;;;;;;;4994972;28;19921;-93
2022/12/21 08:14:32;;;;;;;;;;;;;;;;;;4996591;28;19921;-90
2022/12/21 08:16:59;;;;;;;;;;;;;;;;;;4998366;28;19991;-90
2022/12/21 08:19:26;;;;;;;;;;;;;;;;;;4999213;28;19925;-92
2022/12/21 08:21:52;;;;;;;;;;;;;;;;;;4998345;28;19929;-92
2022/12/21 08:24:17;;;;;;;;;;;;;;;;;;4998580;28;19927;-93
2022/12/21 08:26:43;;;;;;;;;;;;;;;;;;4981097;28;20443;-90
2022/12/21 08:29:09;;;;;;;;;;;;;;;;;;4978530;28;19922;-90
2022/12/21 08:31:36;;;;;;;;;;;;;;;;;;4978518;28;19929;-90
2022/12/21 08:34:02;;;;;;;;;;;;;;;;;;4979121;28;19933;-93
2022/12/21 08:36:27;;;;;;;;;;;;;;;;;;4978578;28;19921;-93
2022/12/21 08:38:53;;;;;;;;;;;;;;;;;;4978877;28;19925;-92
2022/12/21 08:41:19;;;;;;;;;;;;;;;;;;4979044;28;19922;-92
2022/12/21 08:43:45;;;;;;;;;;;;;;;;;;4979174;28;19922;-93
2022/12/21 08:46:11;;;;;;;;;;;;;;;;;;4980052;28;19929;-91
2022/12/21 08:48:37;;;;;;;;;;;;;;;;;;4978362;28;19961;-92
2022/12/21 08:51:03;;;;;;;;;;;;;;;;;;4978255;28;19922;-91
2022/12/21 08:53:32;;;;;;;;;;;;;;;;;;4994694;28;19984;-91
2022/12/21 08:55:58;;;;;;;;;;;;;;;;;;4978141;28;19930;-92
2022/12/21 08:58:24;;;;;;;;;;;;;;;;;;4977952;28;19922;-92
2022/12/21 09:00:50;;;;;;;;;;;;;;;;;;4977912;28;19976;-92
2022/12/21 09:03:16;;;;;;;;;;;;;;;;;;4978187;28;19922;-92
2022/12/21 09:05:42;;;;;;;;;;;;;;;;;;4978015;28;19930;-91
2022/12/21 09:08:08;;;;;;;;;;;;;;;;;;4978098;28;20262;-90
2022/12/21 09:10:34;;;;;;;;;;;;;;;;;;4977927;28;19948;-91
2022/12/21 09:13:01;;;;;;;;;;;;;;;;;;4977963;28;20289;-91
2022/12/21 09:15:27;;;;;;;;;;;;;;;;;;4978113;28;19941;-92
2022/12/21 09:17:53;;;;;;;;;;;;;;;;;;4978155;28;20009;-92
2022/12/21 09:20:19;;;;;;;;;;;;;;;;;;4978125;28;20285;-91
2022/12/21 09:22:45;;;;;;;;;;;;;;;;;;4977647;28;19926;-91
2022/12/21 09:25:12;;;;;;;;;;;;;;;;;;4977179;28;19926;-88
2022/12/21 09:27:38;;;;;;;;;;;;;;;;;;4977415;28;19973;-89
2022/12/21 09:30:04;;;;;;;;;;;;;;;;;;4977355;28;19937;-90
2022/12/21 09:32:29;;;;;;;;;;;;;;;;;;4977492;28;20423;-90
2022/12/21 09:34:55;;;;;;;;;;;;;;;;;;4977627;28;19965;-90
2022/12/21 09:37:21;;;;;;;;;;;;;;;;;;4977479;28;20020;-91
2022/12/21 09:39:47;;;;;;;;;;;;;;;;;;4977633;28;19976;-89
2022/12/21 09:42:13;;;;;;;;;;;;;;;;;;4977409;28;19921;-92
2022/12/21 09:44:39;;;;;;;;;;;;;;;;;;4977255;28;20040;-91
2022/12/21 09:47:05;;;;;;;;;;;;;;;;;;4977090;28;19976;-90
2022/12/21 09:49:31;;;;;;;;;;;;;;;;;;4977178;28;20297;-92
2022/12/21 09:51:57;;;;;;;;;;;;;;;;;;4977098;28;19929;-90
2022/12/21 09:54:23;;;;;;;;;;;;;;;;;;4977021;28;19922;-90
2022/12/21 09:56:48;;;;;;;;;;;;;;;;;;4977571;28;20008;-90
2022/12/21 09:59:14;;;;;;;;;;;;;;;;;;4976861;28;19926;-89
2022/12/21 10:01:42;;;;;;;;;;;;;;;;;;4976646;28;20293;-89
2022/12/21 10:04:08;;;;;;;;;;;;;;;;;;4977111;28;19943;-89
2022/12/21 10:06:34;;;;;;;;;;;;;;;;;;4977068;28;20376;-89
2022/12/21 10:08:59;;;;;;;;;;;;;;;;;;4979045;28;19976;-90
2022/12/21 10:11:25;;;;;;;;;;;;;;;;;;4980636;28;19929;-90
2022/12/21 10:13:52;;;;;;;;;;;;;;;;;;4984855;28;19910;-91
2022/12/21 10:16:18;;;;;;;;;;;;;;;;;;5001696;28;19952;-91
2022/12/21 10:18:44;;;;;;;;;;;;;;;;;;4991230;28;19926;-90
2022/12/21 10:21:10;;;;;;;;;;;;;;;;;;4976461;28;19922;-89
2022/12/21 10:23:36;;;;;;;;;;;;;;;;;;4976505;28;20377;-89
2022/12/21 10:26:02;;;;;;;;;;;;;;;;;;4976547;28;19983;-89
2022/12/21 10:28:28;;;;;;;;;;;;;;;;;;4975907;28;19922;-88
2022/12/21 10:46:12;;;;;;;;;;;;;;;;;;4993475;28;19990;-89
2022/12/21 10:48:38;;;;;;;;;;;;;;;;;;4975942;28;19933;-89
2022/12/21 10:51:04;;;;;;;;;;;;;;;;;;4975077;28;20101;-92
2022/12/21 10:53:30;;;;;;;;;;;;;;;;;;4976511;28;19949;-89
2022/12/21 10:55:56;;;;;;;;;;;;;;;;;;4992185;28;20261;-90
2022/12/21 10:58:22;;;;;;;;;;;;;;;;;;4976237;28;19968;-89
2022/12/21 11:00:47;;;;;;;;;;;;;;;;;;4992362;28;20384;-90
2022/12/21 11:03:13;;;;;;;;;;;;;;;;;;4975839;28;19925;-92
2022/12/21 11:05:39;;;;;;;;;;;;;;;;;;4975542;28;19930;-89
2022/12/21 11:08:05;;;;;;;;;;;;;;;;;;4993056;28;19922;-88
2022/12/21 11:10:31;;;;;;;;;;;;;;;;;;4992142;28;20509;-90
2022/12/21 11:12:57;;;;;;;;;;;;;;;;;;4975940;28;19945;-89
2022/12/21 11:15:23;;;;;;;;;;;;;;;;;;4975628;28;20361;-90
2022/12/21 11:17:50;;;;;;;;;;;;;;;;;;4975575;28;19922;-89
2022/12/21 11:20:16;;;;;;;;;;;;;;;;;;4991591;28;19921;-88
2022/12/21 11:22:42;;;;;;;;;;;;;;;;;;4988398;28;20296;-89
2022/12/21 11:25:08;;;;;;;;;;;;;;;;;;4972438;28;20393;-89
2022/12/21 11:27:34;;;;;;;;;;;;;;;;;;4990633;28;19986;-89
2022/12/21 11:30:00;;;;;;;;;;;;;;;;;;4990566;28;20028;-92
2022/12/21 11:32:26;;;;;;;;;;;;;;;;;;4972613;28;19929;-92
2022/12/21 11:34:52;;;;;;;;;;;;;;;;;;4972930;28;19980;-92
2022/12/21 11:37:18;;;;;;;;;;;;;;;;;;4973009;28;19922;-90
2022/12/21 11:39:44;;;;;;;;;;;;;;;;;;4972596;28;19922;-92
2022/12/21 11:42:09;;;;;;;;;;;;;;;;;;4972356;28;19923;-91
2022/12/21 11:44:35;;;;;;;;;;;;;;;;;;4989103;28;19929;-91
2022/12/21 11:47:01;;;;;;;;;;;;;;;;;;4972615;28;19930;-91
2022/12/21 11:49:27;;;;;;;;;;;;;;;;;;4975801;28;19984;-91
2022/12/21 11:51:53;;;;;;;;;;;;;;;;;;4992627;28;19953;-90
2022/12/21 11:54:19;;;;;;;;;;;;;;;;;;4977086;28;19922;-92
2022/12/21 11:56:45;;;;;;;;;;;;;;;;;;4976496;28;20301;-92
2022/12/21 11:59:11;;;;;;;;;;;;;;;;;;4976150;28;19934;-92
2022/12/21 12:01:37;;;;;;;;;;;;;;;;;;4992803;28;19926;-92
2022/12/21 12:04:03;;;;;;;;;;;;;;;;;;4976493;28;19948;-92
2022/12/21 12:06:30;;;;;;;;;;;;;;;;;;4976037;28;19933;-92
2022/12/21 12:08:55;;;;;;;;;;;;;;;;;;4976305;28;19926;-92
2022/12/21 12:11:22;;;;;;;;;;;;;;;;;;4975736;28;20377;-90
2022/12/21 12:13:47;;;;;;;;;;;;;;;;;;4991991;28;19922;-90
2022/12/21 12:16:13;;;;;;;;;;;;;;;;;;4975816;28;20005;-91
2022/12/21 12:18:39;;;;;;;;;;;;;;;;;;4975685;28;20018;-91
2022/12/21 12:21:05;;;;;;;;;;;;;;;;;;4993200;28;19922;-90
2022/12/21 12:23:31;;;;;;;;;;;;;;;;;;4994971;28;19972;-90
2022/12/21 12:25:57;;;;;;;;;;;;;;;;;;4995034;28;19971;-91
2022/12/21 12:28:23;;;;;;;;;;;;;;;;;;4979009;28;19926;-91
2022/12/21 12:30:49;;;;;;;;;;;;;;;;;;4978380;28;20677;-89
2022/12/21 12:33:15;;;;;;;;;;;;;;;;;;4994523;28;19944;-90
2022/12/21 12:35:41;;;;;;;;;;;;;;;;;;4978769;28;19964;-93
2022/12/21 12:38:07;;;;;;;;;;;;;;;;;;4994868;28;20005;-91
2022/12/21 12:40:32;;;;;;;;;;;;;;;;;;4978374;28;19929;-90
2022/12/21 12:42:58;;;;;;;;;;;;;;;;;;4994918;28;19944;-90
2022/12/21 12:45:24;;;;;;;;;;;;;;;;;;4994447;28;20369;-93
2022/12/21 12:47:50;;;;;;;;;;;;;;;;;;4978034;28;19921;-90
2022/12/21 12:50:16;;;;;;;;;;;;;;;;;;4978044;28;19922;-90
2022/12/21 12:52:42;;;;;;;;;;;;;;;;;;4977791;28;20288;-90
2022/12/21 12:55:08;;;;;;;;;;;;;;;;;;4977952;28;19922;-90
2022/12/21 12:57:34;;;;;;;;;;;;;;;;;;4977986;28;19976;-89
2022/12/21 13:00:03;;;;;;;;;;;;;;;;;;4976601;28;21807;-90
2022/12/21 13:02:29;;;;;;;;;;;;;;;;;;4993869;28;19926;-89
2022/12/21 13:04:55;;;;;;;;;;;;;;;;;;4994184;28;19934;-88
2022/12/21 13:07:21;;;;;;;;;;;;;;;;;;4977664;28;19941;-89
2022/12/21 13:09:46;;;;;;;;;;;;;;;;;;4977627;28;19929;-89
2022/12/21 13:12:12;;;;;;;;;;;;;;;;;;4993740;28;19921;-88
2022/12/21 13:14:38;;;;;;;;;;;;;;;;;;4977869;28;19944;-89
2022/12/21 13:17:04;;;;;;;;;;;;;;;;;;4977769;28;20393;-88
2022/12/21 13:19:30;;;;;;;;;;;;;;;;;;4993726;28;19937;-88
2022/12/21 13:21:57;;;;;;;;;;;;;;;;;;4974105;28;19932;-89
2022/12/21 13:24:23;;;;;;;;;;;;;;;;;;4974391;28;20122;-92
2022/12/21 13:26:49;;;;;;;;;;;;;;;;;;4974554;28;20209;-89
2022/12/21 13:29:15;;;;;;;;;;;;;;;;;;4974232;28;19922;-89
2022/12/21 13:31:42;;;;;;;;;;;;;;;;;;4990174;28;20013;-89
2022/12/21 13:34:08;;;;;;;;;;;;;;;;;;4990397;28;19992;-89
2022/12/21 13:36:34;;;;;;;;;;;;;;;;;;4974346;28;19922;-93
2022/12/21 13:39:00;;;;;;;;;;;;;;;;;;4985909;28;19923;-91
2022/12/21 13:41:25;;;;;;;;;;;;;;;;;;4971036;28;19922;-90
2022/12/21 13:43:52;;;;;;;;;;;;;;;;;;4973705;28;20016;-89
2022/12/21 13:46:17;;;;;;;;;;;;;;;;;;4973846;28;20022;-90
2022/12/21 13:48:45;;;;;;;;;;;;;;;;;;4974226;28;19977;-91
2022/12/21 13:51:11;;;;;;;;;;;;;;;;;;4974877;28;19965;-95
2022/12/21 13:53:37;;;;;;;;;;;;;;;;;;4974458;28;19922;-91
2022/12/21 13:56:04;;;;;;;;;;;;;;;;;;4974067;28;19923;-90
2022/12/21 13:58:30;;;;;;;;;;;;;;;;;;4974042;28;19973;-91
2022/12/21 14:00:55;;;;;;;;;;;;;;;;;;4973931;28;20294;-92
2022/12/21 14:03:21;;;;;;;;;;;;;;;;;;4990657;28;19933;-90
2022/12/21 14:05:47;;;;;;;;;;;;;;;;;;4974015;28;20064;-91
2022/12/21 14:08:13;;;;;;;;;;;;;;;;;;4973931;28;19958;-91
2022/12/21 14:10:39;;;;;;;;;;;;;;;;;;4990628;28;20025;-95
2022/12/21 14:13:05;;;;;;;;;;;;;;;;;;4973561;28;20012;-90
2022/12/21 14:15:32;;;;;;;;;;;;;;;;;;4974127;28;19930;-93
2022/12/21 14:17:58;;;;;;;;;;;;;;;;;;4974481;28;20378;-91
2022/12/21 14:20:27;;;;;;;;;;;;;;;;;;4974265;28;19993;-95
2022/12/21 14:22:53;;;;;;;;;;;;;;;;;;4974367;28;20001;-93
2022/12/21 14:25:19;;;;;;;;;;;;;;;;;;4973772;28;19980;-96
2022/12/21 14:27:45;;;;;;;;;;;;;;;;;;4974465;28;20352;-92
2022/12/21 14:30:20;;;;;;;;;;;;;;;;;;4990657;28;20025;-91
2022/12/21 14:32:46;;;;;;;;;;;;;;;;;;4975075;28;20322;-94
2022/12/21 14:35:15;;;;;;;;;;;;;;;;;;4979544;28;20038;-95
2022/12/21 14:37:41;;;;;;;;;;;;;;;;;;4973964;28;20377;-92
2022/12/21 14:40:07;;;;;;;;;;;;;;;;;;4989415;28;19922;-91
2022/12/21 14:42:34;;;;;;;;;;;;;;;;;;4973729;28;19933;-92
2022/12/21 14:44:59;;;;;;;;;;;;;;;;;;4973663;28;20393;-91
2022/12/21 14:47:25;;;;;;;;;;;;;;;;;;4973541;28;20024;-93
2022/12/21 14:49:51;;;;;;;;;;;;;;;;;;4973868;28;19926;-92
2022/12/21 14:52:17;;;;;;;;;;;;;;;;;;4991127;28;19969;-91
2022/12/21 14:54:43;;;;;;;;;;;;;;;;;;4977225;28;19922;-92
2022/12/21 14:57:09;;;;;;;;;;;;;;;;;;4976805;28;19960;-91
2022/12/21 14:59:35;;;;;;;;;;;;;;;;;;4981793;28;19961;-92
2022/12/21 15:02:01;;;;;;;;;;;;;;;;;;4990432;28;20404;-93
2022/12/21 15:04:27;;;;;;;;;;;;;;;;;;4988956;28;19929;-93
2022/12/21 15:06:53;;;;;;;;;;;;;;;;;;4972875;28;19926;-92
2022/12/21 15:09:19;;;;;;;;;;;;;;;;;;4972586;28;20416;-92
2022/12/21 15:11:44;;;;;;;;;;;;;;;;;;4972875;28;20020;-93
2022/12/21 15:14:13;;;;;;;;;;;;;;;;;;4973342;28;19922;-93
2022/12/21 15:16:39;;;;;;;;;;;;;;;;;;4972543;28;20370;-91
2022/12/21 15:19:05;;;;;;;;;;;;;;;;;;4972126;28;19929;-91
2022/12/21 15:21:40;;;;;;;;;;;;;;;;;;4987734;28;19936;-91
2022/12/21 15:24:06;;;;;;;;;;;;;;;;;;4975265;28;19922;-91
2022/12/21 15:26:32;;;;;;;;;;;;;;;;;;4976780;28;19926;-93
2022/12/21 15:29:09;;;;;;;;;;;;;;;;;;;;;
2022/12/21 15:31:41;;;;;;;;;;;;;;;;;;4978470;28;19926;-96
2022/12/21 15:34:09;;;;;;;;;;;;;;;;;;4978059;28;20531;-96
2022/12/21 15:36:35;;;;;;;;;;;;;;;;;;4977773;28;19922;-95
2022/12/21 15:39:04;;;;;;;;;;;;;;;;;;4977136;28;19982;-94
2022/12/21 15:41:30;;;;;;;;;;;;;;;;;;4994247;28;19933;-93
2022/12/21 15:43:56;;;;;;;;;;;;;;;;;;4977152;28;19921;-93
2022/12/21 15:46:22;;;;;;;;;;;;;;;;;;4977040;28;19926;-93
2022/12/21 15:48:50;;;;;;;;;;;;;;;;;;4976550;28;20315;-93
2022/12/21 15:51:23;;;;;;;;;;;;;;;;;;4977390;28;19926;-96
2022/12/21 15:53:52;;;;;;;;;;;;;;;;;;4977895;28;19925;-93
2022/12/21 15:56:20;;;;;;;;;;;;;;;;;;4977149;28;20386;-95
2022/12/21 15:58:47;;;;;;;;;;;;;;;;;;4984119;28;20535;-96
2022/12/21 16:01:19;;;;;;;;;;;;;;;;;;4976788;28;20125;-96
2022/12/21 16:03:45;;;;;;;;;;;;;;;;;;4977126;28;19933;-95
2022/12/21 16:06:11;;;;;;;;;;;;;;;;;;4976902;28;19993;-95
2022/12/21 16:08:39;;;;;;;;;;;;;;;;;;4978648;28;19944;-96
2022/12/21 16:11:20;;;;;;;;;;;;;;;;;;;;;
2022/12/21 16:14:00;;;;;;;;;;;;;;;;;;4978872;28;19937;-96
2022/12/21 16:16:39;;;;;;;;;;;;;;;;;;4980866;28;19926;-96
2022/12/21 16:19:06;;;;;;;;;;;;;;;;;;4976829;28;20449;-95
2022/12/21 16:21:41;;;;;;;;;;;;;;;;;;4991367;28;20009;-94
2022/12/21 16:24:14;;;;;;;;;;;;;;;;;;4975896;28;20290;-94
2022/12/21 16:26:42;;;;;;;;;;;;;;;;;;4975811;28;19934;-94
2022/12/21 16:29:09;;;;;;;;;;;;;;;;;;4975951;28;20039;-94
2022/12/21 16:31:34;;;;;;;;;;;;;;;;;;4975845;28;19929;-92
2022/12/21 16:34:00;;;;;;;;;;;;;;;;;;4976151;28;19922;-93
2022/12/21 16:36:26;;;;;;;;;;;;;;;;;;4975198;28;19922;-93
2022/12/21 16:38:52;;;;;;;;;;;;;;;;;;4992150;28;19922;-92
2022/12/21 16:41:18;;;;;;;;;;;;;;;;;;4975579;28;20305;-93
2022/12/21 16:43:44;;;;;;;;;;;;;;;;;;4978767;28;19929;-93
2022/12/21 16:46:10;;;;;;;;;;;;;;;;;;4975562;28;19926;-92
2022/12/21 16:48:36;;;;;;;;;;;;;;;;;;4975455;28;20384;-92
2022/12/21 16:51:04;;;;;;;;;;;;;;;;;;4975764;28;19940;-94
2022/12/21 16:53:30;;;;;;;;;;;;;;;;;;4975210;28;20008;-91
2022/12/21 16:55:56;;;;;;;;;;;;;;;;;;4974702;28;20401;-91
2022/12/21 16:58:22;;;;;;;;;;;;;;;;;;4991323;28;20024;-91
2022/12/21 17:00:49;;;;;;;;;;;;;;;;;;4975247;28;19922;-93
2022/12/21 17:03:15;;;;;;;;;;;;;;;;;;4974741;28;19922;-91
2022/12/21 17:05:42;;;;;;;;;;;;;;;;;;4974260;28;20040;-91
2022/12/21 17:08:08;;;;;;;;;;;;;;;;;;4974264;28;19977;-91